createdAt,value
2018-10-16T00:00:29.786Z,10.91
2018-10-16T00:02:58.342Z,10.90
2018-10-16T00:05:27.142Z,10.89
2018-10-16T00:07:55.713Z,10.88
2018-10-16T00:10:29.694Z,10.87
2018-10-16T00:12:58.413Z,10.88
2018-10-16T00:15:26.855Z,10.86
2018-10-16T00:17:55.810Z,10.84
2018-10-16T00:20:24.782Z,10.81
2018-10-16T00:23:00.177Z,10.79
2018-10-16T00:25:28.943Z,10.79
2018-10-16T00:27:57.385Z,10.75
2018-10-16T00:30:26.237Z,10.73
2018-10-16T00:32:54.783Z,10.70
2018-10-16T00:35:23.209Z,10.68
2018-10-16T00:37:52.049Z,10.64
2018-10-16T00:40:20.809Z,10.64
2018-10-16T00:42:49.290Z,10.64
2018-10-16T00:45:17.838Z,10.63
2018-10-16T00:47:46.557Z,10.62
2018-10-16T00:50:15.002Z,10.60
2018-10-16T00:52:43.854Z,10.58
2018-10-16T00:55:12.399Z,10.58
2018-10-16T00:57:41.177Z,10.39
2018-10-16T01:00:11.381Z,10.56
2018-10-16T01:02:40.206Z,10.55
2018-10-16T01:05:09.727Z,10.56
2018-10-16T01:07:38.731Z,10.54
2018-10-16T01:10:07.781Z,10.53
2018-10-16T01:12:36.346Z,10.52
2018-10-16T01:15:05.345Z,10.50
2018-10-16T01:17:34.074Z,10.46
2018-10-16T01:20:02.950Z,10.44
2018-10-16T01:22:31.766Z,10.41
2018-10-16T01:25:01.042Z,10.37
2018-10-16T01:27:29.477Z,10.36
2018-10-16T01:29:58.026Z,10.33
2018-10-16T01:32:26.566Z,10.32
2018-10-16T01:34:55.006Z,10.34
2018-10-16T01:37:23.813Z,10.36
2018-10-16T01:39:52.612Z,10.36
2018-10-16T01:42:21.045Z,10.36
2018-10-16T01:44:49.625Z,10.35
2018-10-16T01:47:18.277Z,10.32
2018-10-16T01:49:46.725Z,10.30
2018-10-16T01:52:15.617Z,10.28
2018-10-16T01:54:44.425Z,10.26
2018-10-16T01:57:12.959Z,10.24
2018-10-16T01:59:41.736Z,10.23
2018-10-16T02:02:10.305Z,10.23
2018-10-16T02:04:38.888Z,10.23
2018-10-16T02:07:07.481Z,10.24
2018-10-16T02:09:36.181Z,10.22
2018-10-16T02:12:04.673Z,10.05
2018-10-16T02:14:33.622Z,10.23
2018-10-16T02:17:02.183Z,10.25
2018-10-16T02:19:30.616Z,10.25
2018-10-16T02:22:00.249Z,10.27
2018-10-16T02:24:28.894Z,10.25
2018-10-16T02:26:57.374Z,10.24
2018-10-16T02:29:26.754Z,10.23
2018-10-16T02:31:55.354Z,10.22
2018-10-16T02:34:23.804Z,10.20
2018-10-16T02:36:52.581Z,10.15
2018-10-16T02:39:21.120Z,10.12
2018-10-16T02:41:49.582Z,10.10
2018-10-16T02:44:18.322Z,10.09
2018-10-16T02:46:46.850Z,10.09
2018-10-16T02:49:15.314Z,10.07
2018-10-16T02:51:44.379Z,10.06
2018-10-16T02:54:12.897Z,10.04
2018-10-16T02:56:41.331Z,10.00
2018-10-16T02:59:10.133Z,10.00
2018-10-16T03:01:39.565Z,9.95
2018-10-16T03:04:08.173Z,9.94
2018-10-16T03:06:36.820Z,9.92
2018-10-16T03:09:07.777Z,9.91
2018-10-16T03:11:36.234Z,9.93
2018-10-16T03:14:04.861Z,9.93
2018-10-16T03:16:33.738Z,9.92
2018-10-16T03:19:02.253Z,9.90
2018-10-16T03:21:30.866Z,9.91
2018-10-16T03:23:59.790Z,9.94
2018-10-16T03:26:28.233Z,9.94
2018-10-16T03:28:56.898Z,9.88
2018-10-16T03:31:25.534Z,9.86
2018-10-16T03:33:53.997Z,9.83
2018-10-16T03:36:23.237Z,9.82
2018-10-16T03:38:51.793Z,9.80
2018-10-16T03:41:20.213Z,9.75
2018-10-16T03:43:55.926Z,9.73
2018-10-16T03:46:24.369Z,9.70
2018-10-16T03:48:52.837Z,9.67
2018-10-16T03:51:21.869Z,9.67
2018-10-16T03:53:51.261Z,9.67
2018-10-16T03:56:19.770Z,9.64
2018-10-16T03:58:48.389Z,9.62
2018-10-16T04:01:16.865Z,9.63
2018-10-16T04:03:45.326Z,9.65
2018-10-16T04:06:14.171Z,9.69
2018-10-16T04:08:42.670Z,9.69
2018-10-16T04:11:11.108Z,9.69
2018-10-16T04:13:39.765Z,9.68
2018-10-16T04:16:08.413Z,9.67
2018-10-16T04:18:36.929Z,9.67
2018-10-16T04:21:05.630Z,9.66
2018-10-16T04:23:34.087Z,9.63
2018-10-16T04:26:02.971Z,9.59
2018-10-16T04:28:31.612Z,9.58
2018-10-16T04:31:00.325Z,9.58
2018-10-16T04:33:28.761Z,9.50
2018-10-16T04:35:58.070Z,9.55
2018-10-16T04:38:27.048Z,9.53
2018-10-16T04:40:55.766Z,9.53
2018-10-16T04:43:24.745Z,9.53
2018-10-16T04:45:53.261Z,9.50
2018-10-16T04:48:22.141Z,9.02
2018-10-16T04:50:51.106Z,9.49
2018-10-16T04:53:19.560Z,9.48
2018-10-16T04:55:47.998Z,9.48
2018-10-16T04:58:17.191Z,9.51
2018-10-16T05:00:45.801Z,9.54
2018-10-16T05:03:14.259Z,9.54
2018-10-16T05:05:43.026Z,9.52
2018-10-16T05:08:11.466Z,9.53
2018-10-16T05:10:40.016Z,9.54
2018-10-16T05:13:09.079Z,9.55
2018-10-16T05:15:37.430Z,9.54
2018-10-16T05:18:05.887Z,9.53
2018-10-16T05:20:35.335Z,9.51
2018-10-16T05:23:04.028Z,9.51
2018-10-16T05:25:32.455Z,9.52
2018-10-16T05:28:01.925Z,9.55
2018-10-16T05:30:30.373Z,9.55
2018-10-16T05:32:58.822Z,9.55
2018-10-16T05:35:27.782Z,9.55
2018-10-16T05:37:56.217Z,9.55
2018-10-16T05:40:24.658Z,9.51
2018-10-16T05:42:53.801Z,9.50
2018-10-16T05:45:22.305Z,9.49
2018-10-16T05:47:50.797Z,9.49
2018-10-16T05:50:19.866Z,9.49
2018-10-16T05:52:48.363Z,9.47
2018-10-16T05:55:16.795Z,9.49
2018-10-16T05:57:45.497Z,9.51
2018-10-16T06:00:25.089Z,9.54
2018-10-16T06:02:53.916Z,9.55
2018-10-16T06:05:22.357Z,9.57
2018-10-16T06:07:50.785Z,9.60
2018-10-16T06:10:19.646Z,9.66
2018-10-16T06:12:48.373Z,9.70
2018-10-16T06:15:17.102Z,9.74
2018-10-16T06:17:46.153Z,9.83
2018-10-16T06:20:14.606Z,9.94
2018-10-16T06:22:43.670Z,10.06
2018-10-16T06:25:12.579Z,10.20
2018-10-16T06:27:42.436Z,10.34
2018-10-16T06:30:11.374Z,10.44
2018-10-16T06:32:40.350Z,10.50
2018-10-16T06:35:09.808Z,10.59
2018-10-16T06:37:38.527Z,10.73
2018-10-16T06:40:08.067Z,10.83
2018-10-16T06:42:36.841Z,10.94
2018-10-16T06:45:06.776Z,10.97
2018-10-16T06:47:35.973Z,10.99
2018-10-16T06:50:05.048Z,11.01
2018-10-16T06:52:33.502Z,10.99
2018-10-16T06:55:02.598Z,10.95
2018-10-16T06:57:31.049Z,10.90
2018-10-16T06:59:59.865Z,10.89
2018-10-16T07:02:28.950Z,10.89
2018-10-16T07:04:57.476Z,10.89
2018-10-16T07:07:26.090Z,10.96
2018-10-16T07:09:55.159Z,11.09
2018-10-16T07:12:23.747Z,11.28
2018-10-16T07:14:52.278Z,11.63
2018-10-16T07:17:20.989Z,12.06
2018-10-16T07:19:49.481Z,12.49
2018-10-16T07:22:17.922Z,12.95
2018-10-16T07:24:47.273Z,13.35
2018-10-16T07:27:15.718Z,13.56
2018-10-16T07:29:44.179Z,13.72
2018-10-16T07:32:13.234Z,13.94
2018-10-16T07:34:41.692Z,14.31
2018-10-16T07:37:10.179Z,14.56
2018-10-16T07:39:39.254Z,14.63
2018-10-16T07:42:07.940Z,14.81
2018-10-16T07:44:36.431Z,14.88
2018-10-16T07:47:05.145Z,14.90
2018-10-16T07:49:33.605Z,14.90
2018-10-16T07:52:02.068Z,15.05
2018-10-16T07:54:31.355Z,15.30
2018-10-16T07:56:59.888Z,15.42
2018-10-16T07:59:28.339Z,15.53
2018-10-16T08:01:57.151Z,15.43
2018-10-16T08:04:25.674Z,15.21
2018-10-16T08:06:54.145Z,15.14
2018-10-16T08:09:22.839Z,15.06
2018-10-16T08:11:51.521Z,14.99
2018-10-16T08:14:20.962Z,14.85
2018-10-16T08:16:50.649Z,14.69
2018-10-16T08:19:19.255Z,14.54
2018-10-16T08:21:48.213Z,14.43
2018-10-16T08:24:17.101Z,14.31
2018-10-16T08:26:45.630Z,14.16
2018-10-16T08:29:14.318Z,14.11
2018-10-16T08:31:43.484Z,14.06
2018-10-16T08:34:12.108Z,14.04
2018-10-16T08:36:40.705Z,13.96
2018-10-16T08:39:13.177Z,13.90
2018-10-16T08:44:13.152Z,13.86
2018-10-16T08:46:52.935Z,13.79
2018-10-16T08:49:32.609Z,13.74
2018-10-16T08:52:01.822Z,13.68
2018-10-16T08:54:30.281Z,13.63
2018-10-16T08:56:58.805Z,13.59
2018-10-16T08:59:27.873Z,13.57
2018-10-16T09:01:56.364Z,13.56
2018-10-16T09:04:24.874Z,13.55
2018-10-16T09:06:54.099Z,13.56
2018-10-16T09:09:22.645Z,13.57
2018-10-16T09:11:51.121Z,13.64
2018-10-16T09:14:20.070Z,13.69
2018-10-16T09:16:48.533Z,13.74
2018-10-16T09:19:17.041Z,13.75
2018-10-16T09:21:46.047Z,13.76
2018-10-16T09:24:14.489Z,13.75
2018-10-16T09:26:42.977Z,13.75
2018-10-16T09:29:11.569Z,13.74
2018-10-16T09:31:40.031Z,13.74
2018-10-16T09:34:08.614Z,13.77
2018-10-16T09:36:38.162Z,13.75
2018-10-16T09:39:09.407Z,13.73
2018-10-16T09:41:38.050Z,13.70
2018-10-16T09:44:06.701Z,13.68
2018-10-16T09:46:35.221Z,13.65
2018-10-16T09:49:03.664Z,13.62
2018-10-16T09:51:32.313Z,13.58
2018-10-16T09:54:01.006Z,13.54
2018-10-16T09:56:29.548Z,13.50
2018-10-16T09:58:58.796Z,13.50
2018-10-16T10:01:32.467Z,13.44
2018-10-16T10:04:01.388Z,13.39
2018-10-16T10:06:29.838Z,13.32
2018-10-16T10:08:58.338Z,13.29
2018-10-16T10:11:27.058Z,13.28
2018-10-16T10:13:55.507Z,13.29
2018-10-16T10:16:24.269Z,13.30
2018-10-16T10:18:52.897Z,13.15
2018-10-16T10:21:21.345Z,13.30
2018-10-16T10:23:49.832Z,13.33
2018-10-16T10:26:18.955Z,13.39
2018-10-16T10:28:47.927Z,13.43
2018-10-16T10:31:16.447Z,13.47
2018-10-16T10:33:45.666Z,13.47
2018-10-16T10:36:14.134Z,13.47
2018-10-16T10:38:42.783Z,13.50
2018-10-16T10:41:11.971Z,13.53
2018-10-16T10:43:40.426Z,13.60
2018-10-16T10:46:09.297Z,13.69
2018-10-16T10:48:38.451Z,13.74
2018-10-16T10:51:07.313Z,13.79
2018-10-16T10:53:35.704Z,13.83
2018-10-16T10:56:05.002Z,13.84
2018-10-16T10:58:33.427Z,13.87
2018-10-16T11:01:01.948Z,13.91
2018-10-16T11:03:31.226Z,13.92
2018-10-16T11:05:59.521Z,13.96
2018-10-16T11:08:27.993Z,13.99
2018-10-16T11:10:57.118Z,14.04
2018-10-16T11:13:25.538Z,14.05
2018-10-16T11:15:54.002Z,14.11
2018-10-16T11:18:23.478Z,14.27
2018-10-16T11:20:51.960Z,14.41
2018-10-16T11:23:20.533Z,14.49
2018-10-16T11:25:49.209Z,14.47
2018-10-16T11:28:18.342Z,14.43
2018-10-16T11:30:51.190Z,14.38
2018-10-16T11:33:20.541Z,14.36
2018-10-16T11:35:49.085Z,14.34
2018-10-16T11:38:18.553Z,14.34
2018-10-16T11:40:47.253Z,14.39
2018-10-16T11:43:15.708Z,14.42
2018-10-16T11:45:44.668Z,14.42
2018-10-16T11:48:13.078Z,14.41
2018-10-16T11:50:41.514Z,14.43
2018-10-16T11:53:10.273Z,14.44
2018-10-16T11:55:38.725Z,14.48
2018-10-16T11:58:07.201Z,14.52
2018-10-16T12:00:36.042Z,14.55
2018-10-16T12:03:04.601Z,14.60
2018-10-16T12:05:33.054Z,14.60
2018-10-16T12:08:02.169Z,14.55
2018-10-16T12:10:31.014Z,14.49
2018-10-16T12:12:59.475Z,14.41
2018-10-16T12:15:28.110Z,14.38
2018-10-16T12:18:15.644Z,14.34
2018-10-16T12:20:47.193Z,14.31
2018-10-16T12:23:15.886Z,14.30
2018-10-16T12:25:44.450Z,14.33
2018-10-16T12:28:13.706Z,14.41
2018-10-16T12:30:42.169Z,14.50
2018-10-16T12:33:10.749Z,14.53
2018-10-16T12:35:42.369Z,14.56
2018-10-16T12:38:10.898Z,14.59
2018-10-16T12:40:39.361Z,14.63
2018-10-16T12:43:09.297Z,14.61
2018-10-16T12:45:37.758Z,14.53
2018-10-16T12:48:06.408Z,14.48
2018-10-16T12:50:35.252Z,14.45
2018-10-16T12:53:03.784Z,14.43
2018-10-16T12:55:32.274Z,14.37
2018-10-16T12:58:01.218Z,14.34
2018-10-16T13:00:29.665Z,14.31
2018-10-16T13:02:58.154Z,14.31
2018-10-16T13:05:27.056Z,14.32
2018-10-16T13:07:55.663Z,14.26
2018-10-16T13:10:24.162Z,14.23
2018-10-16T13:12:53.110Z,14.19
2018-10-16T13:15:21.635Z,14.15
2018-10-16T13:17:50.134Z,14.16
2018-10-16T13:20:18.882Z,14.18
2018-10-16T13:22:48.553Z,14.15
2018-10-16T13:25:17.293Z,14.09
2018-10-16T13:27:45.914Z,14.06
2018-10-16T13:30:15.774Z,14.04
2018-10-16T13:32:45.307Z,14.03
2018-10-16T13:35:15.585Z,14.00
2018-10-16T13:37:44.713Z,13.96
2018-10-16T13:40:13.444Z,13.92
2018-10-16T13:42:42.646Z,13.88
2018-10-16T13:45:13.302Z,13.82
2018-10-16T13:47:41.757Z,13.81
2018-10-16T13:50:13.306Z,13.79
2018-10-16T13:52:41.714Z,13.74
2018-10-16T13:55:11.120Z,13.68
2018-10-16T13:57:40.202Z,13.57
2018-10-16T14:00:13.556Z,13.50
2018-10-16T14:02:43.149Z,13.49
2018-10-16T14:05:11.975Z,13.46
2018-10-16T14:07:40.442Z,13.45
2018-10-16T14:10:10.711Z,13.45
2018-10-16T14:12:40.714Z,13.41
2018-10-16T14:15:09.734Z,13.30
2018-10-16T14:17:38.457Z,13.28
2018-10-16T14:20:07.693Z,13.26
2018-10-16T14:22:37.237Z,13.28
2018-10-16T14:25:07.742Z,13.24
2018-10-16T14:27:36.187Z,13.18
2018-10-16T14:30:05.134Z,13.14
2018-10-16T14:32:33.797Z,13.12
2018-10-16T14:35:02.234Z,13.10
2018-10-16T14:37:30.694Z,13.06
2018-10-16T14:39:59.899Z,13.05
2018-10-16T14:42:28.334Z,13.04
2018-10-16T14:44:56.794Z,13.00
2018-10-16T14:47:26.056Z,12.96
2018-10-16T14:49:54.505Z,12.96
2018-10-16T14:52:23.089Z,12.96
2018-10-16T14:54:52.138Z,12.94
2018-10-16T14:57:20.980Z,12.94
2018-10-16T14:59:49.549Z,12.94
2018-10-16T15:02:18.622Z,12.95
2018-10-16T15:04:47.078Z,12.97
2018-10-16T15:07:15.669Z,12.98
2018-10-16T15:09:44.387Z,12.98
2018-10-16T15:12:12.826Z,12.97
2018-10-16T15:14:41.315Z,12.92
2018-10-16T15:17:10.051Z,12.88
2018-10-16T15:19:38.506Z,12.84
2018-10-16T15:22:07.036Z,12.83
2018-10-16T15:24:36.210Z,12.80
2018-10-16T15:27:04.973Z,12.75
2018-10-16T15:29:33.410Z,12.73
2018-10-16T15:32:02.124Z,12.68
2018-10-16T15:34:30.519Z,12.67
2018-10-16T15:36:58.981Z,12.61
2018-10-16T15:39:27.634Z,12.56
2018-10-16T15:41:56.251Z,12.50
2018-10-16T15:44:24.762Z,12.41
2018-10-16T15:46:53.458Z,12.40
2018-10-16T15:49:22.841Z,12.39
2018-10-16T15:51:51.573Z,12.39
2018-10-16T15:54:21.040Z,12.38
2018-10-16T15:56:49.498Z,12.37
2018-10-16T15:59:17.951Z,12.38
2018-10-16T16:01:46.927Z,12.40
2018-10-16T16:04:15.349Z,12.40
2018-10-16T16:06:43.856Z,12.43
2018-10-16T16:09:13.574Z,12.43
2018-10-16T16:11:42.185Z,12.40
2018-10-16T16:14:10.727Z,12.36
2018-10-16T16:16:39.439Z,12.34
2018-10-16T16:19:08.173Z,12.31
2018-10-16T16:21:36.625Z,12.28
2018-10-16T16:24:05.389Z,12.24
2018-10-16T16:26:33.842Z,12.19
2018-10-16T16:29:02.294Z,12.18
2018-10-16T16:31:31.378Z,12.14
2018-10-16T16:33:59.854Z,12.08
2018-10-16T16:36:28.378Z,11.98
2018-10-16T16:38:57.414Z,11.95
2018-10-16T16:41:25.857Z,11.88
2018-10-16T16:43:54.651Z,11.82
2018-10-16T16:46:23.713Z,11.79
2018-10-16T16:48:52.229Z,11.76
2018-10-16T16:51:21.337Z,11.78
2018-10-16T16:53:50.694Z,11.79
2018-10-16T16:56:19.200Z,11.77
2018-10-16T16:58:47.658Z,11.70
2018-10-16T17:01:16.781Z,11.69
2018-10-16T17:03:45.247Z,11.68
2018-10-16T17:06:13.743Z,11.65
2018-10-16T17:08:42.514Z,11.62
2018-10-16T17:11:10.941Z,11.60
2018-10-16T17:13:39.404Z,11.53
2018-10-16T17:16:08.108Z,11.49
2018-10-16T17:18:36.617Z,11.49
2018-10-16T17:21:05.842Z,11.47
2018-10-16T17:23:34.926Z,11.47
2018-10-16T17:26:05.515Z,11.46
2018-10-16T17:28:33.752Z,11.43
2018-10-16T17:31:02.779Z,11.39
2018-10-16T17:33:31.222Z,11.35
2018-10-16T17:35:59.810Z,11.34
2018-10-16T17:38:28.585Z,11.34
2018-10-16T17:40:57.029Z,11.32
2018-10-16T17:43:25.610Z,11.32
2018-10-16T17:45:55.086Z,11.34
2018-10-16T17:48:23.630Z,11.36
2018-10-16T17:50:52.077Z,11.38
2018-10-16T17:53:20.980Z,11.43
2018-10-16T17:55:49.438Z,11.45
2018-10-16T17:58:17.899Z,11.47
2018-10-16T18:00:47.078Z,11.48
2018-10-16T18:03:15.688Z,11.46
2018-10-16T18:05:44.129Z,11.46
2018-10-16T18:08:14.790Z,11.48
2018-10-16T18:10:43.237Z,11.48
2018-10-16T18:13:11.665Z,11.49
2018-10-16T18:15:40.480Z,11.46
2018-10-16T18:18:08.936Z,11.47
2018-10-16T18:20:37.385Z,11.48
2018-10-16T18:23:06.807Z,11.50
2018-10-16T18:25:35.242Z,11.54
2018-10-16T18:28:03.706Z,11.52
2018-10-16T18:30:32.341Z,11.50
2018-10-16T18:33:00.810Z,11.52
2018-10-16T18:35:29.262Z,11.55
2018-10-16T18:37:58.545Z,11.58
2018-10-16T18:40:27.079Z,11.58
2018-10-16T18:42:55.530Z,11.59
2018-10-16T18:45:24.214Z,11.57
2018-10-16T18:47:52.742Z,11.54
2018-10-16T18:50:21.178Z,11.53
2018-10-16T18:52:50.667Z,11.49
2018-10-16T18:55:19.287Z,11.44
2018-10-16T18:57:47.736Z,11.45
2018-10-16T19:00:18.932Z,11.41
2018-10-16T19:02:48.196Z,11.41
2018-10-16T19:05:16.697Z,11.39
2018-10-16T19:07:45.583Z,11.35
2018-10-16T19:10:14.058Z,11.34
2018-10-16T19:12:42.838Z,11.33
2018-10-16T19:15:13.051Z,11.31
2018-10-16T19:17:42.158Z,11.30
2018-10-16T19:20:11.903Z,11.27
2018-10-16T19:22:41.037Z,11.27
2018-10-16T19:25:10.402Z,11.27
2018-10-16T19:27:39.001Z,11.27
2018-10-16T19:30:09.058Z,11.26
2018-10-16T19:32:37.850Z,11.24
2018-10-16T19:35:06.981Z,11.23
2018-10-16T19:37:35.946Z,11.27
2018-10-16T19:40:04.467Z,11.28
2018-10-16T19:42:33.953Z,11.28
2018-10-16T19:45:02.967Z,11.26
2018-10-16T19:47:31.592Z,11.27
2018-10-16T19:50:00.131Z,11.26
2018-10-16T19:52:29.093Z,11.24
2018-10-16T19:54:57.631Z,11.22
2018-10-16T19:57:26.305Z,11.17
2018-10-16T19:59:55.009Z,11.16
2018-10-16T20:02:23.545Z,11.16
2018-10-16T20:04:52.036Z,11.10
2018-10-16T20:07:21.105Z,11.10
2018-10-16T20:09:49.743Z,11.10
2018-10-16T20:12:18.324Z,11.06
2018-10-16T20:14:46.971Z,11.02
2018-10-16T20:17:15.437Z,10.97
2018-10-16T20:19:43.956Z,10.96
2018-10-16T20:22:12.772Z,10.95
2018-10-16T20:24:41.304Z,10.94
2018-10-16T20:27:09.752Z,10.93
2018-10-16T20:29:38.922Z,10.73
2018-10-16T20:32:07.672Z,10.87
2018-10-16T20:34:36.120Z,10.82
2018-10-16T20:37:05.052Z,10.79
2018-10-16T20:39:33.542Z,10.79
2018-10-16T20:42:02.054Z,10.81
2018-10-16T20:44:30.904Z,10.81
2018-10-16T20:46:59.600Z,10.77
2018-10-16T20:49:28.249Z,10.77
2018-10-16T20:51:57.413Z,10.78
2018-10-16T20:54:25.954Z,10.78
2018-10-16T20:56:54.625Z,10.76
2018-10-16T20:59:23.782Z,10.76
2018-10-16T21:01:52.249Z,10.76
2018-10-16T21:04:20.713Z,10.76
2018-10-16T21:06:49.994Z,10.76
2018-10-16T21:09:18.433Z,10.76
2018-10-16T21:11:46.881Z,10.75
2018-10-16T21:14:15.871Z,10.72
2018-10-16T21:16:44.298Z,10.69
2018-10-16T21:19:12.858Z,10.67
2018-10-16T21:21:41.928Z,10.64
2018-10-16T21:24:10.562Z,10.66
2018-10-16T21:26:39.025Z,10.67
2018-10-16T21:29:08.341Z,10.68
2018-10-16T21:31:36.765Z,10.67
2018-10-16T21:34:05.333Z,10.67
2018-10-16T21:36:34.713Z,10.66
2018-10-16T21:39:03.654Z,10.67
2018-10-16T21:41:32.096Z,10.68
2018-10-16T21:44:00.953Z,10.69
2018-10-16T21:46:29.422Z,10.70
2018-10-16T21:48:57.910Z,10.71
2018-10-16T21:51:28.305Z,10.70
2018-10-16T21:53:56.788Z,10.72
2018-10-16T21:56:25.332Z,10.74
2018-10-16T21:58:54.457Z,10.77
2018-10-16T22:01:27.234Z,10.77
2018-10-16T22:03:55.900Z,10.78
2018-10-16T22:06:24.337Z,10.80
2018-10-16T22:08:52.768Z,10.80
2018-10-16T22:11:21.940Z,10.81
2018-10-16T22:13:50.586Z,10.79
2018-10-16T22:16:19.211Z,10.80
2018-10-16T22:18:48.442Z,10.81
2018-10-16T22:21:16.872Z,10.81
2018-10-16T22:23:45.297Z,10.84
2018-10-16T22:26:13.927Z,10.86
2018-10-16T22:28:42.867Z,10.88
2018-10-16T22:31:11.591Z,10.91
2018-10-16T22:33:40.200Z,10.93
2018-10-16T22:36:08.696Z,10.96
2018-10-16T22:38:37.151Z,10.99
2018-10-16T22:41:06.710Z,11.00
2018-10-16T22:43:35.205Z,11.02
2018-10-16T22:46:03.683Z,11.03
2018-10-16T22:48:32.734Z,11.05
2018-10-16T22:51:01.249Z,11.06
2018-10-16T22:53:29.698Z,11.08
2018-10-16T22:55:58.889Z,11.09
2018-10-16T22:58:27.389Z,11.11
2018-10-16T23:00:56.302Z,11.11
2018-10-16T23:03:25.410Z,11.12
2018-10-16T23:05:53.852Z,11.10
2018-10-16T23:08:22.281Z,11.09
2018-10-16T23:10:51.106Z,11.12
2018-10-16T23:13:19.548Z,11.14
2018-10-16T23:15:48.686Z,11.16
2018-10-16T23:18:17.504Z,11.14
2018-10-16T23:20:45.953Z,11.10
2018-10-16T23:23:14.475Z,11.07
2018-10-16T23:25:43.630Z,11.06
2018-10-16T23:28:12.141Z,11.06
2018-10-16T23:30:40.577Z,11.09
2018-10-16T23:33:09.201Z,11.09
2018-10-16T23:35:37.629Z,11.07
2018-10-16T23:38:06.357Z,11.02
2018-10-16T23:40:35.004Z,11.00
2018-10-16T23:43:03.490Z,10.98
2018-10-16T23:45:31.958Z,10.95
2018-10-16T23:48:00.861Z,10.94
2018-10-16T23:50:29.301Z,10.95
2018-10-16T23:52:57.879Z,10.96
2018-10-16T23:55:26.544Z,10.94
2018-10-16T23:57:54.968Z,10.94
